sensor_id;sensor_type;location;lat;lon;timestamp;pressure;altitude;pressure_sealevel;temperature;humidity
42601;BME280;28229;48.856;9.088;2023-02-04T00:02:11;99185.31;;;6.43;100.00
42601;BME280;28229;48.856;9.088;2023-02-04T00:04:37;99182.03;;;6.41;100.00
42601;BME280;28229;48.856;9.088;2023-02-04T00:07:03;99178.63;;;6.40;100.00
42601;BME280;28229;48.856;9.088;2023-02-04T00:09:29;99161.44;;;6.38;100.00
42601;BME280;28229;48.856;9.088;2023-02-04T00:11:55;99175.00;;;6.41;100.00
42601;BME280;28229;48.856;9.088;2023-02-04T00:14:33;99174.66;;;6.36;100.00
42601;BME280;28229;48.856;9.088;2023-02-04T00:16:59;99168.47;;;6.37;100.00
42601;BME280;28229;48.856;9.088;2023-02-04T00:19:25;99179.94;;;6.44;100.00
42601;BME280;28229;48.856;9.088;2023-02-04T00:21:52;99169.63;;;6.43;100.00
42601;BME280;28229;48.856;9.088;2023-02-04T00:24:18;99181.88;;;6.42;100.00
42601;BME280;28229;48.856;9.088;2023-02-04T00:26:44;99199.53;;;6.48;100.00
42601;BME280;28229;48.856;9.088;2023-02-04T00:29:10;99187.47;;;6.47;100.00
42601;BME280;28229;48.856;9.088;2023-02-04T00:31:37;99184.84;;;6.47;100.00
42601;BME280;28229;48.856;9.088;2023-02-04T00:34:03;99192.69;;;6.47;100.00
42601;BME280;28229;48.856;9.088;2023-02-04T00:36:29;99200.22;;;6.51;100.00
42601;BME280;28229;48.856;9.088;2023-02-04T00:38:56;99190.72;;;6.50;100.00
42601;BME280;28229;48.856;9.088;2023-02-04T00:41:22;99187.47;;;6.47;100.00
42601;BME280;28229;48.856;9.088;2023-02-04T00:43:48;99201.81;;;6.43;100.00
42601;BME280;28229;48.856;9.088;2023-02-04T00:46:14;99206.06;;;6.44;100.00
42601;BME280;28229;48.856;9.088;2023-02-04T00:48:40;99217.03;;;6.48;100.00
42601;BME280;28229;48.856;9.088;2023-02-04T00:51:06;99209.19;;;6.48;100.00
42601;BME280;28229;48.856;9.088;2023-02-04T00:53:32;99200.34;;;6.41;100.00
42601;BME280;28229;48.856;9.088;2023-02-04T00:55:58;99200.19;;;6.42;100.00
42601;BME280;28229;48.856;9.088;2023-02-04T00:58:25;99210.81;;;6.41;100.00
42601;BME280;28229;48.856;9.088;2023-02-04T01:00:51;99215.22;;;6.40;100.00
42601;BME280;28229;48.856;9.088;2023-02-04T01:03:17;99206.88;;;6.45;100.00
42601;BME280;28229;48.856;9.088;2023-02-04T01:05:43;99213.56;;;6.39;100.00
42601;BME280;28229;48.856;9.088;2023-02-04T01:08:10;99215.22;;;6.40;100.00
42601;BME280;28229;48.856;9.088;2023-02-04T01:10:36;99209.50;;;6.37;100.00
42601;BME280;28229;48.856;9.088;2023-02-04T01:13:02;99218.28;;;6.36;100.00
42601;BME280;28229;48.856;9.088;2023-02-04T01:15:28;99221.91;;;6.35;100.00
42601;BME280;28229;48.856;9.088;2023-02-04T01:17:55;99221.84;;;6.26;100.00
42601;BME280;28229;48.856;9.088;2023-02-04T01:20:21;99219.75;;;6.30;100.00
42601;BME280;28229;48.856;9.088;2023-02-04T01:22:48;99218.75;;;6.23;100.00
42601;BME280;28229;48.856;9.088;2023-02-04T01:25:14;99208.78;;;6.26;100.00
42601;BME280;28229;48.856;9.088;2023-02-04T01:27:43;99218.75;;;6.23;100.00
42601;BME280;28229;48.856;9.088;2023-02-04T01:30:12;99226.44;;;6.24;100.00
42601;BME280;28229;48.856;9.088;2023-02-04T01:32:40;99228.38;;;6.22;100.00
42601;BME280;28229;48.856;9.088;2023-02-04T01:35:07;99230.50;;;6.19;100.00
42601;BME280;28229;48.856;9.088;2023-02-04T01:37:33;99223.97;;;6.23;100.00
42601;BME280;28229;48.856;9.088;2023-02-04T01:39:59;99223.97;;;6.23;100.00
42601;BME280;28229;48.856;9.088;2023-02-04T01:42:25;99225.94;;;6.21;100.00
42601;BME280;28229;48.856;9.088;2023-02-04T01:44:52;99228.84;;;6.18;100.00
42601;BME280;28229;48.856;9.088;2023-02-04T01:47:21;99229.50;;;6.20;100.00
42601;BME280;28229;48.856;9.088;2023-02-04T01:49:50;99222.97;;;6.16;100.00
42601;BME280;28229;48.856;9.088;2023-02-04T01:52:17;99224.75;;;6.15;100.00
42601;BME280;28229;48.856;9.088;2023-02-04T01:54:43;99223.25;;;6.13;100.00
42601;BME280;28229;48.856;9.088;2023-02-04T01:57:14;99225.72;;;6.14;100.00
42601;BME280;28229;48.856;9.088;2023-02-04T01:59:45;99229.31;;;6.13;100.00
42601;BME280;28229;48.856;9.088;2023-02-04T02:02:37;99224.06;;;6.13;98.77
42601;BME280;28229;48.856;9.088;2023-02-04T02:05:09;99226.38;;;6.08;98.96
42601;BME280;28229;48.856;9.088;2023-02-04T02:07:36;99225.38;;;6.09;98.84
42601;BME280;28229;48.856;9.088;2023-02-04T02:10:04;99231.69;;;5.98;99.46
42601;BME280;28229;48.856;9.088;2023-02-04T02:12:36;99240.53;;;5.97;100.00
42601;BME280;28229;48.856;9.088;2023-02-04T02:15:03;99237.19;;;5.95;99.82
42601;BME280;28229;48.856;9.088;2023-02-04T02:17:30;99247.31;;;5.90;99.91
42601;BME280;28229;48.856;9.088;2023-02-04T02:19:58;99234.03;;;5.83;100.00
42601;BME280;28229;48.856;9.088;2023-02-04T02:22:33;99245.59;;;5.81;99.73
42601;BME280;28229;48.856;9.088;2023-02-04T02:25:10;99245.09;;;5.77;99.86
42601;BME280;28229;48.856;9.088;2023-02-04T02:27:53;99244.56;;;5.73;99.97
42601;BME280;28229;48.856;9.088;2023-02-04T02:30:20;99253.06;;;5.76;100.00
42601;BME280;28229;48.856;9.088;2023-02-04T02:33:06;99267.41;;;5.71;100.00
42601;BME280;28229;48.856;9.088;2023-02-04T02:35:33;99271.97;;;5.69;100.00
42601;BME280;28229;48.856;9.088;2023-02-04T02:37:59;99281.25;;;5.64;100.00
42601;BME280;28229;48.856;9.088;2023-02-04T02:40:25;99288.41;;;5.62;100.00
42601;BME280;28229;48.856;9.088;2023-02-04T02:42:52;99280.09;;;5.66;100.00
42601;BME280;28229;48.856;9.088;2023-02-04T02:45:25;99263.78;;;5.64;100.00
42601;BME280;28229;48.856;9.088;2023-02-04T02:47:53;99266.53;;;5.63;100.00
42601;BME280;28229;48.856;9.088;2023-02-04T02:50:23;99263.41;;;5.59;100.00
42601;BME280;28229;48.856;9.088;2023-02-04T02:52:52;99274.50;;;5.61;100.00
42601;BME280;28229;48.856;9.088;2023-02-04T02:55:22;99267.97;;;5.57;100.00
42601;BME280;28229;48.856;9.088;2023-02-04T02:57:50;99262.75;;;5.57;100.00
42601;BME280;28229;48.856;9.088;2023-02-04T03:00:22;99269.25;;;5.53;100.00
42601;BME280;28229;48.856;9.088;2023-02-04T03:03:06;99265.66;;;5.54;100.00
42601;BME280;28229;48.856;9.088;2023-02-04T03:05:39;99265.00;;;5.52;100.00
42601;BME280;28229;48.856;9.088;2023-02-04T03:08:07;99276.09;;;5.54;100.00
42601;BME280;28229;48.856;9.088;2023-02-04T03:10:35;99277.75;;;5.55;100.00
42601;BME280;28229;48.856;9.088;2023-02-04T03:13:02;99290.44;;;5.50;100.00
42601;BME280;28229;48.856;9.088;2023-02-04T03:15:29;99297.59;;;5.48;100.00
42601;BME280;28229;48.856;9.088;2023-02-04T03:17:57;99307.75;;;5.51;100.00
42601;BME280;28229;48.856;9.088;2023-02-04T03:20:26;99316.53;;;5.50;100.00
42601;BME280;28229;48.856;9.088;2023-02-04T03:22:54;99316.66;;;5.48;100.00
42601;BME280;28229;48.856;9.088;2023-02-04T03:25:25;99327.25;;;5.47;100.00
42601;BME280;28229;48.856;9.088;2023-02-04T03:27:55;99330.53;;;5.49;100.00
42601;BME280;28229;48.856;9.088;2023-02-04T03:30:22;99330.84;;;5.46;100.00
42601;BME280;28229;48.856;9.088;2023-02-04T03:32:48;99329.22;;;5.45;100.00
42601;BME280;28229;48.856;9.088;2023-02-04T03:35:14;99331.16;;;5.43;100.00
42601;BME280;28229;48.856;9.088;2023-02-04T03:37:41;99325.56;;;5.38;100.00
42601;BME280;28229;48.856;9.088;2023-02-04T03:40:08;99333.53;;;5.36;100.00
42601;BME280;28229;48.856;9.088;2023-02-04T03:42:34;99344.94;;;5.35;100.00
42601;BME280;28229;48.856;9.088;2023-02-04T03:45:00;99339.22;;;5.31;100.00
42601;BME280;28229;48.856;9.088;2023-02-04T03:47:26;99330.41;;;5.32;100.00
42601;BME280;28229;48.856;9.088;2023-02-04T03:49:52;99342.78;;;5.30;100.00
42601;BME280;28229;48.856;9.088;2023-02-04T03:52:18;99340.03;;;5.32;100.00
42601;BME280;28229;48.856;9.088;2023-02-04T03:54:46;99343.44;;;5.32;100.00
42601;BME280;28229;48.856;9.088;2023-02-04T03:57:12;99344.72;;;5.28;100.00
42601;BME280;28229;48.856;9.088;2023-02-04T03:59:41;99343.38;;;5.24;100.00
42601;BME280;28229;48.856;9.088;2023-02-04T04:02:07;99338.31;;;5.23;100.00
42601;BME280;28229;48.856;9.088;2023-02-04T04:04:35;99344.34;;;5.23;100.00
42601;BME280;28229;48.856;9.088;2023-02-04T04:07:01;99337.19;;;5.25;100.00
42601;BME280;28229;48.856;9.088;2023-02-04T04:09:27;99334.28;;;5.28;100.00
42601;BME280;28229;48.856;9.088;2023-02-04T04:11:54;99342.25;;;5.27;100.00
42601;BME280;28229;48.856;9.088;2023-02-04T04:14:20;99349.28;;;5.26;100.00
42601;BME280;28229;48.856;9.088;2023-02-04T04:16:46;99348.00;;;5.30;100.00
42601;BME280;28229;48.856;9.088;2023-02-04T04:19:12;99360.22;;;5.30;100.00
42601;BME280;28229;48.856;9.088;2023-02-04T04:21:39;99349.66;;;5.31;100.00
42601;BME280;28229;48.856;9.088;2023-02-04T04:24:05;99355.16;;;5.28;100.00
42601;BME280;28229;48.856;9.088;2023-02-04T04:26:31;99365.59;;;5.28;100.00
42601;BME280;28229;48.856;9.088;2023-02-04T04:28:57;99374.91;;;5.31;100.00
42601;BME280;28229;48.856;9.088;2023-02-04T04:31:23;99378.63;;;5.28;100.00
42601;BME280;28229;48.856;9.088;2023-02-04T04:33:50;99382.91;;;5.29;100.00
42601;BME280;28229;48.856;9.088;2023-02-04T04:36:16;99382.59;;;5.32;100.00
42601;BME280;28229;48.856;9.088;2023-02-04T04:38:42;99385.88;;;5.34;100.00
42601;BME280;28229;48.856;9.088;2023-02-04T04:41:08;99391.25;;;5.33;100.00
42601;BME280;28229;48.856;9.088;2023-02-04T04:43:34;99389.47;;;5.33;100.00
42601;BME280;28229;48.856;9.088;2023-02-04T04:46:00;99402.13;;;5.28;100.00
42601;BME280;28229;48.856;9.088;2023-02-04T04:48:26;99400.72;;;5.34;100.00
42601;BME280;28229;48.856;9.088;2023-02-04T04:50:52;99404.84;;;5.37;100.00
42601;BME280;28229;48.856;9.088;2023-02-04T04:53:19;99396.63;;;5.31;100.00
42601;BME280;28229;48.856;9.088;2023-02-04T04:55:45;99398.25;;;5.32;100.00
42601;BME280;28229;48.856;9.088;2023-02-04T04:58:11;99395.78;;;5.31;100.00
42601;BME280;28229;48.856;9.088;2023-02-04T05:00:37;99406.75;;;5.34;100.00
42601;BME280;28229;48.856;9.088;2023-02-04T05:03:03;99411.81;;;5.36;100.00
42601;BME280;28229;48.856;9.088;2023-02-04T05:05:29;99416.44;;;5.24;100.00
42601;BME280;28229;48.856;9.088;2023-02-04T05:07:55;99406.69;;;5.26;100.00
42601;BME280;28229;48.856;9.088;2023-02-04T05:10:22;99410.38;;;5.24;100.00
42601;BME280;28229;48.856;9.088;2023-02-04T05:12:48;99419.56;;;5.28;100.00
42601;BME280;28229;48.856;9.088;2023-02-04T05:15:14;99416.13;;;5.27;100.00
42601;BME280;28229;48.856;9.088;2023-02-04T05:17:40;99415.84;;;5.30;100.00
42601;BME280;28229;48.856;9.088;2023-02-04T05:20:07;99417.50;;;5.31;100.00
42601;BME280;28229;48.856;9.088;2023-02-04T05:22:33;99415.28;;;5.37;100.00
42601;BME280;28229;48.856;9.088;2023-02-04T05:24:59;99408.00;;;5.30;100.00
42601;BME280;28229;48.856;9.088;2023-02-04T05:27:43;99406.75;;;5.34;100.00
42601;BME280;28229;48.856;9.088;2023-02-04T05:30:11;99411.97;;;5.34;100.00
42601;BME280;28229;48.856;9.088;2023-02-04T05:32:37;99414.56;;;5.34;100.00
42601;BME280;28229;48.856;9.088;2023-02-04T05:35:04;99422.31;;;5.26;100.00
42601;BME280;28229;48.856;9.088;2023-02-04T05:37:31;99420.00;;;5.23;100.00
42601;BME280;28229;48.856;9.088;2023-02-04T05:39:57;99429.78;;;5.21;100.00
42601;BME280;28229;48.856;9.088;2023-02-04T05:42:23;99425.50;;;5.20;100.00
42601;BME280;28229;48.856;9.088;2023-02-04T05:44:49;99424.69;;;5.20;100.00
42601;BME280;28229;48.856;9.088;2023-02-04T05:47:15;99417.28;;;5.15;100.00
42601;BME280;28229;48.856;9.088;2023-02-04T05:49:42;99420.88;;;5.14;100.00
42601;BME280;28229;48.856;9.088;2023-02-04T05:52:08;99417.88;;;5.09;100.00
42601;BME280;28229;48.856;9.088;2023-02-04T05:54:34;99423.63;;;5.12;100.00
42601;BME280;28229;48.856;9.088;2023-02-04T05:57:00;99423.63;;;5.12;100.00
42601;BME280;28229;48.856;9.088;2023-02-04T05:59:26;99422.97;;;5.10;100.00
42601;BME280;28229;48.856;9.088;2023-02-04T06:01:52;99415.94;;;5.11;100.00
42601;BME280;28229;48.856;9.088;2023-02-04T06:04:19;99433.25;;;5.12;100.00
42601;BME280;28229;48.856;9.088;2023-02-04T06:06:45;99450.84;;;5.10;100.00
42601;BME280;28229;48.856;9.088;2023-02-04T06:09:11;99454.69;;;5.06;100.00
42601;BME280;28229;48.856;9.088;2023-02-04T06:11:38;99451.69;;;5.01;100.00
42601;BME280;28229;48.856;9.088;2023-02-04T06:14:04;99455.28;;;5.00;100.00
42601;BME280;28229;48.856;9.088;2023-02-04T06:16:30;99461.31;;;5.00;100.00
42601;BME280;28229;48.856;9.088;2023-02-04T06:18:56;99458.84;;;4.99;100.00
42601;BME280;28229;48.856;9.088;2023-02-04T06:21:22;99459.81;;;4.98;100.00
42601;BME280;28229;48.856;9.088;2023-02-04T06:23:48;99468.88;;;4.93;100.00
42601;BME280;28229;48.856;9.088;2023-02-04T06:26:15;99469.00;;;4.92;100.00
42601;BME280;28229;48.856;9.088;2023-02-04T06:28:41;99473.03;;;4.86;100.00
42601;BME280;28229;48.856;9.088;2023-02-04T06:31:07;99474.69;;;4.87;100.00
42601;BME280;28229;48.856;9.088;2023-02-04T06:33:35;99473.31;;;4.83;100.00
42601;BME280;28229;48.856;9.088;2023-02-04T06:36:03;99478.22;;;4.86;100.00
42601;BME280;28229;48.856;9.088;2023-02-04T06:38:29;99492.25;;;4.85;100.00
42601;BME280;28229;48.856;9.088;2023-02-04T06:40:55;99484.03;;;4.80;100.00
42601;BME280;28229;48.856;9.088;2023-02-04T06:43:22;99482.78;;;4.84;100.00
42601;BME280;28229;48.856;9.088;2023-02-04T06:45:50;99486.63;;;4.80;100.00
42601;BME280;28229;48.856;9.088;2023-02-04T06:48:17;99490.19;;;4.79;100.00
42601;BME280;28229;48.856;9.088;2023-02-04T06:50:43;99490.88;;;4.81;100.00
42601;BME280;28229;48.856;9.088;2023-02-04T06:53:09;99495.41;;;4.79;100.00
42601;BME280;28229;48.856;9.088;2023-02-04T06:55:35;99500.63;;;4.79;100.00
42601;BME280;28229;48.856;9.088;2023-02-04T06:58:02;99511.72;;;4.81;100.00
42601;BME280;28229;48.856;9.088;2023-02-04T07:00:28;99508.44;;;4.79;100.00
42601;BME280;28229;48.856;9.088;2023-02-04T07:02:56;99512.72;;;4.80;100.00
42601;BME280;28229;48.856;9.088;2023-02-04T07:05:23;99512.44;;;4.83;100.00
42601;BME280;28229;48.856;9.088;2023-02-04T07:07:50;99505.56;;;4.82;100.00
42601;BME280;28229;48.856;9.088;2023-02-04T07:10:17;99506.16;;;4.76;100.00
42601;BME280;28229;48.856;9.088;2023-02-04T07:12:43;99512.03;;;4.78;100.00
42601;BME280;28229;48.856;9.088;2023-02-04T07:15:09;99517.13;;;4.80;100.00
42601;BME280;28229;48.856;9.088;2023-02-04T07:17:35;99537.44;;;4.76;100.00
42601;BME280;28229;48.856;9.088;2023-02-04T07:20:01;99556.63;;;4.75;100.00
42601;BME280;28229;48.856;9.088;2023-02-04T07:22:28;99557.47;;;4.66;100.00
42601;BME280;28229;48.856;9.088;2023-02-04T07:24:54;99552.00;;;4.69;100.00
42601;BME280;28229;48.856;9.088;2023-02-04T07:27:25;99552.00;;;4.69;100.00
42601;BME280;28229;48.856;9.088;2023-02-04T07:29:51;99547.44;;;4.71;100.00
42601;BME280;28229;48.856;9.088;2023-02-04T07:32:18;99549.50;;;4.67;100.00
42601;BME280;28229;48.856;9.088;2023-02-04T07:34:44;99563.38;;;4.68;100.00
42601;BME280;28229;48.856;9.088;2023-02-04T07:37:10;99560.75;;;4.68;100.00
42601;BME280;28229;48.856;9.088;2023-02-04T07:39:36;99558.81;;;4.70;100.00
42601;BME280;28229;48.856;9.088;2023-02-04T07:42:02;99554.69;;;4.77;100.00
42601;BME280;28229;48.856;9.088;2023-02-04T07:44:35;99567.47;;;4.80;100.00
42601;BME280;28229;48.856;9.088;2023-02-04T07:47:02;99561.69;;;4.86;100.00
42601;BME280;28229;48.856;9.088;2023-02-04T07:49:28;99561.69;;;4.86;100.00
42601;BME280;28229;48.856;9.088;2023-02-04T07:51:54;99567.03;;;4.94;100.00
42601;BME280;28229;48.856;9.088;2023-02-04T07:54:22;99576.06;;;5.00;100.00
42601;BME280;28229;48.856;9.088;2023-02-04T07:56:49;99585.69;;;5.00;100.00
42601;BME280;28229;48.856;9.088;2023-02-04T07:59:15;99589.25;;;4.99;100.00
42601;BME280;28229;48.856;9.088;2023-02-04T08:01:41;99595.13;;;5.01;100.00
42601;BME280;28229;48.856;9.088;2023-02-04T08:04:07;99603.28;;;4.98;100.00
42601;BME280;28229;48.856;9.088;2023-02-04T08:06:33;99604.50;;;5.03;100.00
42601;BME280;28229;48.856;9.088;2023-02-04T08:08:59;99601.06;;;5.03;100.00
42601;BME280;28229;48.856;9.088;2023-02-04T08:11:25;99602.03;;;5.02;100.00
42601;BME280;28229;48.856;9.088;2023-02-04T08:13:52;99600.53;;;4.99;100.00
42601;BME280;28229;48.856;9.088;2023-02-04T08:16:18;99598.59;;;5.01;100.00
42601;BME280;28229;48.856;9.088;2023-02-04T08:18:44;99587.59;;;5.07;100.00
42601;BME280;28229;48.856;9.088;2023-02-04T08:21:10;99601.75;;;5.05;100.00
42601;BME280;28229;48.856;9.088;2023-02-04T08:23:36;99614.88;;;5.13;100.00
42601;BME280;28229;48.856;9.088;2023-02-04T08:26:10;99616.41;;;5.15;100.00
42601;BME280;28229;48.856;9.088;2023-02-04T08:28:37;99618.88;;;5.17;100.00
42601;BME280;28229;48.856;9.088;2023-02-04T08:31:11;99627.09;;;5.22;100.00
42601;BME280;28229;48.856;9.088;2023-02-04T08:33:38;99631.19;;;5.34;100.00
42601;BME280;28229;48.856;9.088;2023-02-04T08:36:05;99630.22;;;5.36;100.00
42601;BME280;28229;48.856;9.088;2023-02-04T08:38:32;99617.03;;;5.37;100.00
42601;BME280;28229;48.856;9.088;2023-02-04T08:40:58;99614.97;;;5.41;100.00
42601;BME280;28229;48.856;9.088;2023-02-04T08:43:25;99626.47;;;5.48;100.00
42601;BME280;28229;48.856;9.088;2023-02-04T08:45:52;99615.19;;;5.57;100.00
42601;BME280;28229;48.856;9.088;2023-02-04T08:48:18;99637.66;;;5.78;100.00
42601;BME280;28229;48.856;9.088;2023-02-04T08:50:44;99632.38;;;5.97;100.00
42601;BME280;28229;48.856;9.088;2023-02-04T08:53:10;99644.34;;;6.18;100.00
42601;BME280;28229;48.856;9.088;2023-02-04T08:55:36;99645.09;;;6.28;100.00
42601;BME280;28229;48.856;9.088;2023-02-04T08:58:02;99648.03;;;6.43;100.00
42601;BME280;28229;48.856;9.088;2023-02-04T09:00:29;99642.75;;;6.53;97.86
42601;BME280;28229;48.856;9.088;2023-02-04T09:02:55;99650.97;;;6.58;97.10
42601;BME280;28229;48.856;9.088;2023-02-04T09:05:21;99649.59;;;6.54;95.24
42601;BME280;28229;48.856;9.088;2023-02-04T09:07:47;99650.22;;;6.65;95.63
42601;BME280;28229;48.856;9.088;2023-02-04T09:10:14;99661.19;;;6.69;94.46
42601;BME280;28229;48.856;9.088;2023-02-04T09:12:40;99659.16;;;6.63;89.77
42601;BME280;28229;48.856;9.088;2023-02-04T09:15:09;99665.97;;;6.56;89.81
42601;BME280;28229;48.856;9.088;2023-02-04T09:17:35;99660.59;;;6.57;88.80
42601;BME280;28229;48.856;9.088;2023-02-04T09:20:03;99666.28;;;6.71;90.68
42601;BME280;28229;48.856;9.088;2023-02-04T09:22:29;99669.25;;;6.94;88.90
42601;BME280;28229;48.856;9.088;2023-02-04T09:24:56;99670.44;;;6.99;88.96
42601;BME280;28229;48.856;9.088;2023-02-04T09:27:22;99666.47;;;7.13;87.62
42601;BME280;28229;48.856;9.088;2023-02-04T09:29:48;99671.31;;;7.26;87.87
42601;BME280;28229;48.856;9.088;2023-02-04T09:32:14;99673.63;;;7.29;83.08
42601;BME280;28229;48.856;9.088;2023-02-04T09:34:40;99678.09;;;7.37;84.30
42601;BME280;28229;48.856;9.088;2023-02-04T09:37:06;99679.00;;;7.28;85.44
42601;BME280;28229;48.856;9.088;2023-02-04T09:39:33;99678.31;;;7.43;88.06
42601;BME280;28229;48.856;9.088;2023-02-04T09:41:59;99687.94;;;7.43;84.93
42601;BME280;28229;48.856;9.088;2023-02-04T09:44:26;99687.81;;;7.27;85.89
42601;BME280;28229;48.856;9.088;2023-02-04T09:46:56;99698.41;;;7.17;84.15
42601;BME280;28229;48.856;9.088;2023-02-04T09:49:24;99710.38;;;7.01;82.74
42601;BME280;28229;48.856;9.088;2023-02-04T09:51:51;99704.00;;;7.04;83.71
42601;BME280;28229;48.856;9.088;2023-02-04T09:54:20;99701.75;;;7.09;85.24
42601;BME280;28229;48.856;9.088;2023-02-04T09:56:47;99705.88;;;7.12;83.49
42601;BME280;28229;48.856;9.088;2023-02-04T09:59:19;99699.13;;;7.09;86.35
42601;BME280;28229;48.856;9.088;2023-02-04T10:02:16;99701.59;;;7.11;87.15
42601;BME280;28229;48.856;9.088;2023-02-04T10:04:44;99689.78;;;7.24;88.88
42601;BME280;28229;48.856;9.088;2023-02-04T10:07:11;99702.19;;;7.22;85.48
42601;BME280;28229;48.856;9.088;2023-02-04T10:09:39;99702.78;;;7.16;83.26
42601;BME280;28229;48.856;9.088;2023-02-04T10:12:06;99700.94;;;7.09;82.48
42601;BME280;28229;48.856;9.088;2023-02-04T10:14:32;99697.03;;;7.13;84.38
42601;BME280;28229;48.856;9.088;2023-02-04T10:17:00;99691.28;;;7.09;80.22
42601;BME280;28229;48.856;9.088;2023-02-04T10:19:27;99699.72;;;7.21;81.36
42601;BME280;28229;48.856;9.088;2023-02-04T10:21:55;99695.25;;;7.31;79.50
42601;BME280;28229;48.856;9.088;2023-02-04T10:24:23;99698.97;;;7.29;76.06
42601;BME280;28229;48.856;9.088;2023-02-04T10:27:09;99690.03;;;7.13;75.09
42601;BME280;28229;48.856;9.088;2023-02-04T10:29:36;99693.53;;;7.22;77.11
42601;BME280;28229;48.856;9.088;2023-02-04T10:32:03;99688.50;;;7.29;77.51
42601;BME280;28229;48.856;9.088;2023-02-04T10:34:34;99697.75;;;7.15;76.01
42601;BME280;28229;48.856;9.088;2023-02-04T10:37:13;99690.63;;;7.07;78.66
42601;BME280;28229;48.856;9.088;2023-02-04T10:39:43;99699.38;;;6.98;76.92
42601;BME280;28229;48.856;9.088;2023-02-04T10:42:20;99694.53;;;6.85;78.35
42601;BME280;28229;48.856;9.088;2023-02-04T10:44:47;99695.41;;;6.58;76.68
42601;BME280;28229;48.856;9.088;2023-02-04T10:47:22;99699.53;;;6.33;72.65
42601;BME280;28229;48.856;9.088;2023-02-04T10:50:17;99693.06;;;6.37;72.52
42601;BME280;28229;48.856;9.088;2023-02-04T10:52:50;99688.28;;;6.32;71.66
42601;BME280;28229;48.856;9.088;2023-02-04T10:55:19;99687.59;;;6.02;72.56
42601;BME280;28229;48.856;9.088;2023-02-04T10:57:47;99694.06;;;5.98;73.23
42601;BME280;28229;48.856;9.088;2023-02-04T11:02:57;99702.72;;;5.99;73.69
42601;BME280;28229;48.856;9.088;2023-02-04T11:05:30;99707.81;;;6.00;73.76
42601;BME280;28229;48.856;9.088;2023-02-04T11:07:57;99707.81;;;6.00;73.50
42601;BME280;28229;48.856;9.088;2023-02-04T11:10:28;99712.28;;;6.18;72.64
42601;BME280;28229;48.856;9.088;2023-02-04T11:15:39;99710.34;;;6.20;72.11
42601;BME280;28229;48.856;9.088;2023-02-04T11:18:08;99715.72;;;6.18;72.41
42601;BME280;28229;48.856;9.088;2023-02-04T11:20:35;99710.06;;;6.23;71.55
42601;BME280;28229;48.856;9.088;2023-02-04T11:26:07;99697.03;;;6.41;71.58
42601;BME280;28229;48.856;9.088;2023-02-04T11:33:44;99693.19;;;6.99;71.27
42601;BME280;28229;48.856;9.088;2023-02-04T11:36:12;99695.81;;;6.99;68.60
42601;BME280;28229;48.856;9.088;2023-02-04T11:38:44;99701.53;;;7.20;69.75
42601;BME280;28229;48.856;9.088;2023-02-04T11:41:20;99692.34;;;7.42;69.27
42601;BME280;28229;48.856;9.088;2023-02-04T11:43:50;99701.59;;;7.55;68.05
42601;BME280;28229;48.856;9.088;2023-02-04T11:46:18;99694.34;;;7.75;66.92
42601;BME280;28229;48.856;9.088;2023-02-04T11:48:45;99691.72;;;8.01;66.54
42601;BME280;28229;48.856;9.088;2023-02-04T11:51:15;99686.06;;;8.30;65.32
42601;BME280;28229;48.856;9.088;2023-02-04T11:53:42;99695.00;;;8.46;61.97
42601;BME280;28229;48.856;9.088;2023-02-04T11:56:19;99692.59;;;8.69;61.95
42601;BME280;28229;48.856;9.088;2023-02-04T11:58:46;99689.66;;;8.88;61.69
42601;BME280;28229;48.856;9.088;2023-02-04T12:01:20;99692.44;;;8.87;63.20
42601;BME280;28229;48.856;9.088;2023-02-04T12:03:56;99692.13;;;8.98;62.32
42601;BME280;28229;48.856;9.088;2023-02-04T12:11:54;99698.38;;;8.81;60.86
42601;BME280;28229;48.856;9.088;2023-02-04T12:14:28;99699.00;;;8.83;61.53
42601;BME280;28229;48.856;9.088;2023-02-04T12:16:54;99698.66;;;8.86;60.50
42601;BME280;28229;48.856;9.088;2023-02-04T12:19:21;99700.16;;;8.72;59.11
42601;BME280;28229;48.856;9.088;2023-02-04T12:21:48;99694.41;;;8.68;59.62
42601;BME280;28229;48.856;9.088;2023-02-04T12:24:14;99707.81;;;8.57;60.07
42601;BME280;28229;48.856;9.088;2023-02-04T12:26:40;99707.66;;;8.58;60.83
42601;BME280;28229;48.856;9.088;2023-02-04T12:29:07;99705.81;;;8.43;59.85
42601;BME280;28229;48.856;9.088;2023-02-04T12:31:34;99698.91;;;8.42;58.90
42601;BME280;28229;48.856;9.088;2023-02-04T12:34:00;99703.00;;;8.36;60.47
42601;BME280;28229;48.856;9.088;2023-02-04T12:36:27;99706.38;;;8.20;60.71
42601;BME280;28229;48.856;9.088;2023-02-04T12:38:55;99701.44;;;8.17;60.27
42601;BME280;28229;48.856;9.088;2023-02-04T12:41:24;99706.69;;;8.17;60.98
42601;BME280;28229;48.856;9.088;2023-02-04T12:43:50;99698.13;;;8.07;61.06
42601;BME280;28229;48.856;9.088;2023-02-04T12:46:17;99705.97;;;8.07;62.32
42601;BME280;28229;48.856;9.088;2023-02-04T12:48:43;99708.88;;;7.95;63.15
42601;BME280;28229;48.856;9.088;2023-02-04T12:51:09;99716.69;;;7.87;63.88
42601;BME280;28229;48.856;9.088;2023-02-04T12:53:35;99714.44;;;7.66;64.18
42601;BME280;28229;48.856;9.088;2023-02-04T12:56:01;99708.69;;;7.62;63.71
42601;BME280;28229;48.856;9.088;2023-02-04T12:58:28;99717.09;;;7.48;63.25
42601;BME280;28229;48.856;9.088;2023-02-04T13:00:54;99708.69;;;7.36;62.64
42601;BME280;28229;48.856;9.088;2023-02-04T13:03:21;99720.56;;;7.31;62.30
42601;BME280;28229;48.856;9.088;2023-02-04T13:05:49;99706.88;;;7.37;62.79
42601;BME280;28229;48.856;9.088;2023-02-04T13:08:15;99711.78;;;7.58;67.58
42601;BME280;28229;48.856;9.088;2023-02-04T13:10:41;99717.50;;;7.88;68.24
42601;BME280;28229;48.856;9.088;2023-02-04T13:13:07;99709.31;;;8.25;68.13
42601;BME280;28229;48.856;9.088;2023-02-04T13:15:37;99718.66;;;8.70;65.41
42601;BME280;28229;48.856;9.088;2023-02-04T13:18:03;99714.13;;;9.22;62.38
42601;BME280;28229;48.856;9.088;2023-02-04T13:20:29;99717.56;;;9.22;58.07
42601;BME280;28229;48.856;9.088;2023-02-04T13:22:55;99720.38;;;9.29;60.10
42601;BME280;28229;48.856;9.088;2023-02-04T13:25:22;99716.41;;;9.58;59.68
42601;BME280;28229;48.856;9.088;2023-02-04T13:27:51;99713.25;;;9.62;60.04